sensor_id;sensor_type;location;lat;lon;timestamp;temperature;humidity
32706;DHT22;19094;50.972;3.538;2023-07-20T00:02:20;23.30;55.40
32706;DHT22;19094;50.972;3.538;2023-07-20T00:04:45;23.30;55.30
32706;DHT22;19094;50.972;3.538;2023-07-20T00:07:11;23.30;55.50
32706;DHT22;19094;50.972;3.538;2023-07-20T00:09:37;23.30;55.50
32706;DHT22;19094;50.972;3.538;2023-07-20T00:12:02;23.20;55.50
32706;DHT22;19094;50.972;3.538;2023-07-20T00:14:28;23.20;55.70
32706;DHT22;19094;50.972;3.538;2023-07-20T00:16:55;23.20;55.60
32706;DHT22;19094;50.972;3.538;2023-07-20T00:19:25;23.20;55.40
32706;DHT22;19094;50.972;3.538;2023-07-20T00:21:52;23.20;55.90
32706;DHT22;19094;50.972;3.538;2023-07-20T00:24:18;23.20;55.70
32706;DHT22;19094;50.972;3.538;2023-07-20T00:26:44;23.20;55.80
32706;DHT22;19094;50.972;3.538;2023-07-20T00:29:10;23.20;55.70
32706;DHT22;19094;50.972;3.538;2023-07-20T00:31:36;23.20;55.80
32706;DHT22;19094;50.972;3.538;2023-07-20T00:34:03;23.20;55.70
32706;DHT22;19094;50.972;3.538;2023-07-20T00:36:29;23.20;55.80
32706;DHT22;19094;50.972;3.538;2023-07-20T00:38:55;23.20;55.90
32706;DHT22;19094;50.972;3.538;2023-07-20T00:41:20;23.20;55.70
32706;DHT22;19094;50.972;3.538;2023-07-20T00:43:46;23.20;55.80
32706;DHT22;19094;50.972;3.538;2023-07-20T00:46:12;23.10;55.80
32706;DHT22;19094;50.972;3.538;2023-07-20T00:48:39;23.20;55.50
32706;DHT22;19094;50.972;3.538;2023-07-20T00:51:05;23.10;55.80
32706;DHT22;19094;50.972;3.538;2023-07-20T00:53:31;23.20;55.80
32706;DHT22;19094;50.972;3.538;2023-07-20T00:55:57;23.10;56.00
32706;DHT22;19094;50.972;3.538;2023-07-20T00:58:23;23.10;56.00
32706;DHT22;19094;50.972;3.538;2023-07-20T01:00:49;23.10;56.00
32706;DHT22;19094;50.972;3.538;2023-07-20T01:03:15;23.10;56.10
32706;DHT22;19094;50.972;3.538;2023-07-20T01:10:54;22.90;56.70
32706;DHT22;19094;50.972;3.538;2023-07-20T01:13:23;22.90;56.20
32706;DHT22;19094;50.972;3.538;2023-07-20T01:15:49;22.90;56.40
32706;DHT22;19094;50.972;3.538;2023-07-20T01:18:16;22.80;56.60
32706;DHT22;19094;50.972;3.538;2023-07-20T01:20:43;22.80;56.50
32706;DHT22;19094;50.972;3.538;2023-07-20T01:23:36;22.80;56.60
32706;DHT22;19094;50.972;3.538;2023-07-20T01:32:17;22.70;57.00
32706;DHT22;19094;50.972;3.538;2023-07-20T01:34:44;22.60;57.30
32706;DHT22;19094;50.972;3.538;2023-07-20T01:37:11;22.60;57.30
32706;DHT22;19094;50.972;3.538;2023-07-20T01:39:38;22.50;57.30
32706;DHT22;19094;50.972;3.538;2023-07-20T01:42:05;22.50;57.30
32706;DHT22;19094;50.972;3.538;2023-07-20T01:44:30;22.50;57.30
32706;DHT22;19094;50.972;3.538;2023-07-20T01:46:56;22.50;57.30
32706;DHT22;19094;50.972;3.538;2023-07-20T01:49:22;22.50;57.40
32706;DHT22;19094;50.972;3.538;2023-07-20T01:51:47;22.40;57.50
32706;DHT22;19094;50.972;3.538;2023-07-20T01:54:13;22.40;57.50
32706;DHT22;19094;50.972;3.538;2023-07-20T01:56:38;22.50;57.30
32706;DHT22;19094;50.972;3.538;2023-07-20T01:59:04;22.40;57.40
32706;DHT22;19094;50.972;3.538;2023-07-20T02:01:30;22.40;57.70
32706;DHT22;19094;50.972;3.538;2023-07-20T02:03:55;22.30;57.70
32706;DHT22;19094;50.972;3.538;2023-07-20T02:06:21;22.30;58.20
32706;DHT22;19094;50.972;3.538;2023-07-20T02:08:47;22.30;57.80
32706;DHT22;19094;50.972;3.538;2023-07-20T02:11:12;22.40;57.70
32706;DHT22;19094;50.972;3.538;2023-07-20T02:13:38;22.30;57.90
32706;DHT22;19094;50.972;3.538;2023-07-20T02:16:04;22.30;57.80
32706;DHT22;19094;50.972;3.538;2023-07-20T02:18:30;22.30;57.80
32706;DHT22;19094;50.972;3.538;2023-07-20T02:20:56;22.30;57.90
32706;DHT22;19094;50.972;3.538;2023-07-20T02:23:22;22.20;58.00
32706;DHT22;19094;50.972;3.538;2023-07-20T02:25:47;22.20;58.10
32706;DHT22;19094;50.972;3.538;2023-07-20T02:28:13;22.10;58.40
32706;DHT22;19094;50.972;3.538;2023-07-20T02:30:39;22.10;58.40
32706;DHT22;19094;50.972;3.538;2023-07-20T02:33:05;22.10;58.40
32706;DHT22;19094;50.972;3.538;2023-07-20T02:35:32;22.10;58.30
32706;DHT22;19094;50.972;3.538;2023-07-20T02:37:57;22.10;58.30
32706;DHT22;19094;50.972;3.538;2023-07-20T02:40:23;22.10;58.40
32706;DHT22;19094;50.972;3.538;2023-07-20T02:42:49;22.10;58.40
32706;DHT22;19094;50.972;3.538;2023-07-20T02:45:15;22.10;58.60
32706;DHT22;19094;50.972;3.538;2023-07-20T02:47:41;22.00;58.70
32706;DHT22;19094;50.972;3.538;2023-07-20T02:50:08;22.10;58.80
32706;DHT22;19094;50.972;3.538;2023-07-20T02:52:34;22.00;58.70
32706;DHT22;19094;50.972;3.538;2023-07-20T02:54:59;22.00;58.70
32706;DHT22;19094;50.972;3.538;2023-07-20T02:57:25;22.00;58.70
32706;DHT22;19094;50.972;3.538;2023-07-20T02:59:51;22.00;58.70
32706;DHT22;19094;50.972;3.538;2023-07-20T03:02:16;22.00;58.90
32706;DHT22;19094;50.972;3.538;2023-07-20T03:04:42;22.00;59.10
32706;DHT22;19094;50.972;3.538;2023-07-20T03:07:07;22.00;58.90
32706;DHT22;19094;50.972;3.538;2023-07-20T03:09:33;22.00;58.80
32706;DHT22;19094;50.972;3.538;2023-07-20T03:11:59;22.00;58.70
32706;DHT22;19094;50.972;3.538;2023-07-20T03:14:25;22.00;58.80
32706;DHT22;19094;50.972;3.538;2023-07-20T03:16:50;22.00;59.00
32706;DHT22;19094;50.972;3.538;2023-07-20T03:19:16;22.00;59.00
32706;DHT22;19094;50.972;3.538;2023-07-20T03:21:41;22.00;59.10
32706;DHT22;19094;50.972;3.538;2023-07-20T03:24:08;22.00;59.30
32706;DHT22;19094;50.972;3.538;2023-07-20T03:26:34;22.00;59.20
32706;DHT22;19094;50.972;3.538;2023-07-20T03:29:00;21.90;59.30
32706;DHT22;19094;50.972;3.538;2023-07-20T03:31:26;22.00;59.40
32706;DHT22;19094;50.972;3.538;2023-07-20T03:33:52;21.90;59.40
32706;DHT22;19094;50.972;3.538;2023-07-20T03:36:17;21.90;59.40
32706;DHT22;19094;50.972;3.538;2023-07-20T03:38:43;21.90;59.20
32706;DHT22;19094;50.972;3.538;2023-07-20T03:41:09;21.90;59.30
32706;DHT22;19094;50.972;3.538;2023-07-20T03:43:34;21.90;59.40
32706;DHT22;19094;50.972;3.538;2023-07-20T03:46:00;22.00;59.30
32706;DHT22;19094;50.972;3.538;2023-07-20T03:48:26;22.00;59.20
32706;DHT22;19094;50.972;3.538;2023-07-20T03:50:54;22.00;59.20
32706;DHT22;19094;50.972;3.538;2023-07-20T03:53:20;22.00;59.20
32706;DHT22;19094;50.972;3.538;2023-07-20T03:55:50;22.00;59.10
32706;DHT22;19094;50.972;3.538;2023-07-20T03:58:16;22.00;59.30
32706;DHT22;19094;50.972;3.538;2023-07-20T04:00:46;22.00;59.20
32706;DHT22;19094;50.972;3.538;2023-07-20T04:03:13;22.00;59.20
32706;DHT22;19094;50.972;3.538;2023-07-20T04:05:38;21.90;59.20
32706;DHT22;19094;50.972;3.538;2023-07-20T04:08:04;22.00;59.30
32706;DHT22;19094;50.972;3.538;2023-07-20T04:10:30;21.90;59.40
32706;DHT22;19094;50.972;3.538;2023-07-20T04:12:55;21.90;59.30
32706;DHT22;19094;50.972;3.538;2023-07-20T04:15:21;21.90;59.40
32706;DHT22;19094;50.972;3.538;2023-07-20T04:17:47;21.90;59.30
32706;DHT22;19094;50.972;3.538;2023-07-20T04:20:12;21.90;59.30
32706;DHT22;19094;50.972;3.538;2023-07-20T04:22:38;21.80;59.40
32706;DHT22;19094;50.972;3.538;2023-07-20T04:25:04;21.90;59.50
32706;DHT22;19094;50.972;3.538;2023-07-20T04:27:30;21.80;59.50
32706;DHT22;19094;50.972;3.538;2023-07-20T04:29:58;21.80;59.50
32706;DHT22;19094;50.972;3.538;2023-07-20T04:32:25;21.90;59.30
32706;DHT22;19094;50.972;3.538;2023-07-20T04:34:51;21.90;59.60
32706;DHT22;19094;50.972;3.538;2023-07-20T04:37:17;21.80;59.50
32706;DHT22;19094;50.972;3.538;2023-07-20T04:39:43;21.80;59.40
32706;DHT22;19094;50.972;3.538;2023-07-20T04:42:08;21.90;59.50
32706;DHT22;19094;50.972;3.538;2023-07-20T04:44:34;21.90;59.40
32706;DHT22;19094;50.972;3.538;2023-07-20T04:46:59;21.90;59.60
32706;DHT22;19094;50.972;3.538;2023-07-20T04:49:25;21.90;59.60
32706;DHT22;19094;50.972;3.538;2023-07-20T04:51:51;21.80;59.50
32706;DHT22;19094;50.972;3.538;2023-07-20T04:54:17;21.90;59.60
32706;DHT22;19094;50.972;3.538;2023-07-20T04:56:44;21.80;59.90
32706;DHT22;19094;50.972;3.538;2023-07-20T04:59:09;21.80;59.60
32706;DHT22;19094;50.972;3.538;2023-07-20T05:01:35;21.90;59.50
32706;DHT22;19094;50.972;3.538;2023-07-20T05:04:01;21.90;59.60
32706;DHT22;19094;50.972;3.538;2023-07-20T05:06:27;21.80;59.80
32706;DHT22;19094;50.972;3.538;2023-07-20T05:08:52;21.80;59.70
32706;DHT22;19094;50.972;3.538;2023-07-20T05:11:18;21.90;59.70
32706;DHT22;19094;50.972;3.538;2023-07-20T05:13:44;21.90;59.70
32706;DHT22;19094;50.972;3.538;2023-07-20T05:16:10;21.90;59.50
32706;DHT22;19094;50.972;3.538;2023-07-20T05:18:35;21.90;59.60
32706;DHT22;19094;50.972;3.538;2023-07-20T05:21:01;22.00;59.40
32706;DHT22;19094;50.972;3.538;2023-07-20T05:23:27;21.90;59.60
32706;DHT22;19094;50.972;3.538;2023-07-20T05:25:59;21.90;59.70
32706;DHT22;19094;50.972;3.538;2023-07-20T05:28:26;21.90;59.80
32706;DHT22;19094;50.972;3.538;2023-07-20T05:30:53;21.90;59.70
32706;DHT22;19094;50.972;3.538;2023-07-20T05:33:19;22.00;59.50
32706;DHT22;19094;50.972;3.538;2023-07-20T05:35:45;22.00;59.50
32706;DHT22;19094;50.972;3.538;2023-07-20T05:38:11;22.00;59.20
32706;DHT22;19094;50.972;3.538;2023-07-20T05:40:44;22.10;59.10
32706;DHT22;19094;50.972;3.538;2023-07-20T05:43:10;22.10;59.40
32706;DHT22;19094;50.972;3.538;2023-07-20T05:45:36;22.00;59.30
32706;DHT22;19094;50.972;3.538;2023-07-20T05:48:02;22.00;59.30
32706;DHT22;19094;50.972;3.538;2023-07-20T05:50:28;22.00;59.20
32706;DHT22;19094;50.972;3.538;2023-07-20T05:52:54;22.00;59.20
32706;DHT22;19094;50.972;3.538;2023-07-20T05:55:20;22.00;59.10
32706;DHT22;19094;50.972;3.538;2023-07-20T05:57:45;22.00;59.00
32706;DHT22;19094;50.972;3.538;2023-07-20T06:00:12;22.00;59.10
32706;DHT22;19094;50.972;3.538;2023-07-20T06:02:38;22.10;59.00
32706;DHT22;19094;50.972;3.538;2023-07-20T06:05:06;22.00;59.10
32706;DHT22;19094;50.972;3.538;2023-07-20T06:07:36;22.00;59.00
32706;DHT22;19094;50.972;3.538;2023-07-20T06:10:01;22.10;58.90
32706;DHT22;19094;50.972;3.538;2023-07-20T06:12:27;22.10;58.90
32706;DHT22;19094;50.972;3.538;2023-07-20T06:14:53;22.10;59.00
32706;DHT22;19094;50.972;3.538;2023-07-20T06:17:19;22.10;59.00
32706;DHT22;19094;50.972;3.538;2023-07-20T06:19:45;22.10;59.00
32706;DHT22;19094;50.972;3.538;2023-07-20T06:22:10;22.00;59.00
32706;DHT22;19094;50.972;3.538;2023-07-20T06:24:36;22.10;58.90
32706;DHT22;19094;50.972;3.538;2023-07-20T06:27:02;22.10;58.70
32706;DHT22;19094;50.972;3.538;2023-07-20T06:29:28;22.10;58.70
32706;DHT22;19094;50.972;3.538;2023-07-20T06:31:54;22.20;58.50
32706;DHT22;19094;50.972;3.538;2023-07-20T06:34:19;22.30;58.30
32706;DHT22;19094;50.972;3.538;2023-07-20T06:36:45;22.20;58.20
32706;DHT22;19094;50.972;3.538;2023-07-20T06:39:10;22.20;58.30
32706;DHT22;19094;50.972;3.538;2023-07-20T06:41:36;22.20;58.50
32706;DHT22;19094;50.972;3.538;2023-07-20T06:44:02;22.10;58.50
32706;DHT22;19094;50.972;3.538;2023-07-20T06:46:28;22.20;58.50
32706;DHT22;19094;50.972;3.538;2023-07-20T06:48:54;22.20;58.70
32706;DHT22;19094;50.972;3.538;2023-07-20T06:51:20;22.10;59.00
32706;DHT22;19094;50.972;3.538;2023-07-20T06:53:46;22.10;58.60
32706;DHT22;19094;50.972;3.538;2023-07-20T06:56:11;22.20;58.40
32706;DHT22;19094;50.972;3.538;2023-07-20T06:58:37;22.20;58.50
32706;DHT22;19094;50.972;3.538;2023-07-20T07:01:07;22.20;58.40
32706;DHT22;19094;50.972;3.538;2023-07-20T07:03:33;22.30;58.20
32706;DHT22;19094;50.972;3.538;2023-07-20T07:05:59;22.40;57.80
32706;DHT22;19094;50.972;3.538;2023-07-20T07:08:25;22.60;57.30
32706;DHT22;19094;50.972;3.538;2023-07-20T07:10:51;22.70;57.00
32706;DHT22;19094;50.972;3.538;2023-07-20T07:13:18;22.60;57.30
32706;DHT22;19094;50.972;3.538;2023-07-20T07:15:44;22.60;57.30
32706;DHT22;19094;50.972;3.538;2023-07-20T07:18:10;22.50;57.70
32706;DHT22;19094;50.972;3.538;2023-07-20T07:20:36;22.50;57.50
32706;DHT22;19094;50.972;3.538;2023-07-20T07:23:02;22.60;57.30
32706;DHT22;19094;50.972;3.538;2023-07-20T07:25:27;22.60;57.40
32706;DHT22;19094;50.972;3.538;2023-07-20T07:27:54;22.70;57.20
32706;DHT22;19094;50.972;3.538;2023-07-20T07:30:21;22.80;56.90
32706;DHT22;19094;50.972;3.538;2023-07-20T07:32:46;23.00;56.50
32706;DHT22;19094;50.972;3.538;2023-07-20T07:35:12;23.00;56.50
32706;DHT22;19094;50.972;3.538;2023-07-20T07:37:38;23.00;56.20
32706;DHT22;19094;50.972;3.538;2023-07-20T07:40:04;23.20;56.50
32706;DHT22;19094;50.972;3.538;2023-07-20T07:42:31;23.20;56.20
32706;DHT22;19094;50.972;3.538;2023-07-20T07:44:57;23.30;55.80
32706;DHT22;19094;50.972;3.538;2023-07-20T07:47:23;23.20;55.70
32706;DHT22;19094;50.972;3.538;2023-07-20T07:49:48;23.20;55.90
32706;DHT22;19094;50.972;3.538;2023-07-20T07:52:15;23.10;56.20
32706;DHT22;19094;50.972;3.538;2023-07-20T07:54:40;23.20;55.90
32706;DHT22;19094;50.972;3.538;2023-07-20T07:57:06;23.20;55.70
32706;DHT22;19094;50.972;3.538;2023-07-20T07:59:32;23.20;56.00
32706;DHT22;19094;50.972;3.538;2023-07-20T08:02:05;23.30;55.80
32706;DHT22;19094;50.972;3.538;2023-07-20T08:04:31;23.40;55.40
32706;DHT22;19094;50.972;3.538;2023-07-20T08:06:57;23.40;55.30
32706;DHT22;19094;50.972;3.538;2023-07-20T08:09:23;23.20;55.40
32706;DHT22;19094;50.972;3.538;2023-07-20T08:11:48;23.40;55.50
32706;DHT22;19094;50.972;3.538;2023-07-20T08:14:15;23.40;55.50
32706;DHT22;19094;50.972;3.538;2023-07-20T08:16:41;23.40;55.20
32706;DHT22;19094;50.972;3.538;2023-07-20T08:19:07;23.40;55.20
32706;DHT22;19094;50.972;3.538;2023-07-20T08:21:32;23.50;55.20
32706;DHT22;19094;50.972;3.538;2023-07-20T08:23:58;23.50;55.10
32706;DHT22;19094;50.972;3.538;2023-07-20T08:26:24;23.50;55.10
32706;DHT22;19094;50.972;3.538;2023-07-20T08:28:49;23.50;55.00
32706;DHT22;19094;50.972;3.538;2023-07-20T08:31:15;23.60;54.80
32706;DHT22;19094;50.972;3.538;2023-07-20T08:33:41;23.60;54.70
32706;DHT22;19094;50.972;3.538;2023-07-20T08:36:06;23.60;54.70
32706;DHT22;19094;50.972;3.538;2023-07-20T08:38:33;23.60;54.70
32706;DHT22;19094;50.972;3.538;2023-07-20T08:40:59;23.60;54.50
32706;DHT22;19094;50.972;3.538;2023-07-20T08:43:26;23.70;54.30
32706;DHT22;19094;50.972;3.538;2023-07-20T08:45:55;23.70;54.20
32706;DHT22;19094;50.972;3.538;2023-07-20T08:48:27;23.70;54.10
32706;DHT22;19094;50.972;3.538;2023-07-20T08:50:54;23.70;54.00
32706;DHT22;19094;50.972;3.538;2023-07-20T08:53:20;23.70;54.00
32706;DHT22;19094;50.972;3.538;2023-07-20T08:55:50;23.70;54.00
32706;DHT22;19094;50.972;3.538;2023-07-20T08:58:16;23.70;54.00
32706;DHT22;19094;50.972;3.538;2023-07-20T09:00:43;23.70;53.90
32706;DHT22;19094;50.972;3.538;2023-07-20T09:03:08;23.80;53.80
32706;DHT22;19094;50.972;3.538;2023-07-20T09:05:35;23.70;54.00
32706;DHT22;19094;50.972;3.538;2023-07-20T09:08:01;23.70;53.90
32706;DHT22;19094;50.972;3.538;2023-07-20T09:10:30;23.70;53.90
32706;DHT22;19094;50.972;3.538;2023-07-20T09:12:56;23.80;53.70
32706;DHT22;19094;50.972;3.538;2023-07-20T09:15:22;23.80;54.10
32706;DHT22;19094;50.972;3.538;2023-07-20T09:17:50;23.90;53.40
32706;DHT22;19094;50.972;3.538;2023-07-20T09:20:17;23.90;53.30
32706;DHT22;19094;50.972;3.538;2023-07-20T09:22:43;23.90;53.00
32706;DHT22;19094;50.972;3.538;2023-07-20T09:25:16;24.00;52.80
32706;DHT22;19094;50.972;3.538;2023-07-20T09:27:45;24.00;52.80
32706;DHT22;19094;50.972;3.538;2023-07-20T09:30:12;24.00;52.60
32706;DHT22;19094;50.972;3.538;2023-07-20T09:32:45;24.00;52.40
32706;DHT22;19094;50.972;3.538;2023-07-20T09:35:15;24.10;52.60
32706;DHT22;19094;50.972;3.538;2023-07-20T09:37:47;24.10;52.40
32706;DHT22;19094;50.972;3.538;2023-07-20T09:40:17;24.20;52.10
32706;DHT22;19094;50.972;3.538;2023-07-20T09:42:43;24.30;51.90
32706;DHT22;19094;50.972;3.538;2023-07-20T09:45:09;24.30;52.00
32706;DHT22;19094;50.972;3.538;2023-07-20T09:47:39;24.30;52.00
32706;DHT22;19094;50.972;3.538;2023-07-20T09:50:06;24.40;51.80
32706;DHT22;19094;50.972;3.538;2023-07-20T09:52:38;24.40;51.80
32706;DHT22;19094;50.972;3.538;2023-07-20T09:55:08;24.40;51.60
32706;DHT22;19094;50.972;3.538;2023-07-20T09:57:35;24.40;51.50
32706;DHT22;19094;50.972;3.538;2023-07-20T10:00:06;24.40;51.10
32706;DHT22;19094;50.972;3.538;2023-07-20T10:02:44;24.50;50.80
32706;DHT22;19094;50.972;3.538;2023-07-20T10:05:14;24.50;51.00
32706;DHT22;19094;50.972;3.538;2023-07-20T10:07:46;24.50;51.00
32706;DHT22;19094;50.972;3.538;2023-07-20T10:10:14;24.50;51.10
32706;DHT22;19094;50.972;3.538;2023-07-20T10:12:41;24.60;51.00
32706;DHT22;19094;50.972;3.538;2023-07-20T10:15:50;24.60;50.60
32706;DHT22;19094;50.972;3.538;2023-07-20T10:20:21;24.70;50.30
32706;DHT22;19094;50.972;3.538;2023-07-20T10:22:48;24.70;50.50
32706;DHT22;19094;50.972;3.538;2023-07-20T10:25:16;24.80;50.50
32706;DHT22;19094;50.972;3.538;2023-07-20T10:27:42;24.80;50.20
32706;DHT22;19094;50.972;3.538;2023-07-20T10:30:08;24.80;49.90
32706;DHT22;19094;50.972;3.538;2023-07-20T10:32:34;24.80;49.90
32706;DHT22;19094;50.972;3.538;2023-07-20T10:35:00;24.80;49.80
32706;DHT22;19094;50.972;3.538;2023-07-20T10:37:49;24.80;50.20
32706;DHT22;19094;50.972;3.538;2023-07-20T10:40:34;24.80;50.00
32706;DHT22;19094;50.972;3.538;2023-07-20T10:43:10;24.80;50.10
32706;DHT22;19094;50.972;3.538;2023-07-20T10:48:05;24.70;50.10
32706;DHT22;19094;50.972;3.538;2023-07-20T10:50:32;24.60;50.40
32706;DHT22;19094;50.972;3.538;2023-07-20T10:53:13;24.60;50.40
32706;DHT22;19094;50.972;3.538;2023-07-20T10:55:40;24.50;50.30
32706;DHT22;19094;50.972;3.538;2023-07-20T10:58:10;24.50;50.70
32706;DHT22;19094;50.972;3.538;2023-07-20T11:00:36;24.50;51.60
32706;DHT22;19094;50.972;3.538;2023-07-20T11:03:02;24.40;51.00
32706;DHT22;19094;50.972;3.538;2023-07-20T11:05:35;24.30;51.10
32706;DHT22;19094;50.972;3.538;2023-07-20T11:08:04;24.30;51.20
32706;DHT22;19094;50.972;3.538;2023-07-20T11:10:30;24.30;51.10
32706;DHT22;19094;50.972;3.538;2023-07-20T11:13:18;24.30;51.40
32706;DHT22;19094;50.972;3.538;2023-07-20T11:18:28;24.20;51.10
32706;DHT22;19094;50.972;3.538;2023-07-20T11:20:54;24.20;51.30
32706;DHT22;19094;50.972;3.538;2023-07-20T11:23:20;24.20;51.30
32706;DHT22;19094;50.972;3.538;2023-07-20T11:25:46;24.20;51.40
32706;DHT22;19094;50.972;3.538;2023-07-20T11:28:12;24.20;51.50
32706;DHT22;19094;50.972;3.538;2023-07-20T11:30:38;24.20;51.60
32706;DHT22;19094;50.972;3.538;2023-07-20T11:33:05;24.20;51.90
32706;DHT22;19094;50.972;3.538;2023-07-20T11:35:34;24.20;51.90
32706;DHT22;19094;50.972;3.538;2023-07-20T11:38:00;24.10;51.90
32706;DHT22;19094;50.972;3.538;2023-07-20T11:40:25;24.10;52.10
32706;DHT22;19094;50.972;3.538;2023-07-20T11:42:51;24.10;52.00
32706;DHT22;19094;50.972;3.538;2023-07-20T11:45:19;24.10;52.10
32706;DHT22;19094;50.972;3.538;2023-07-20T11:47:45;24.10;52.00
32706;DHT22;19094;50.972;3.538;2023-07-20T11:50:11;24.20;51.90
32706;DHT22;19094;50.972;3.538;2023-07-20T11:52:39;24.30;52.40
32706;DHT22;19094;50.972;3.538;2023-07-20T11:55:07;24.30;52.70
32706;DHT22;19094;50.972;3.538;2023-07-20T11:57:33;24.30;52.80
32706;DHT22;19094;50.972;3.538;2023-07-20T12:00:02;24.30;52.20
32706;DHT22;19094;50.972;3.538;2023-07-20T12:02:34;24.30;52.40
32706;DHT22;19094;50.972;3.538;2023-07-20T12:05:00;24.30;52.60
32706;DHT22;19094;50.972;3.538;2023-07-20T12:07:28;24.30;52.80
32706;DHT22;19094;50.972;3.538;2023-07-20T12:10:11;24.30;52.90
32706;DHT22;19094;50.972;3.538;2023-07-20T12:12:41;24.20;52.90
32706;DHT22;19094;50.972;3.538;2023-07-20T12:17:45;24.30;52.60
32706;DHT22;19094;50.972;3.538;2023-07-20T12:20:11;24.30;52.40
32706;DHT22;19094;50.972;3.538;2023-07-20T12:22:43;24.40;52.60
32706;DHT22;19094;50.972;3.538;2023-07-20T12:25:09;24.50;52.40
32706;DHT22;19094;50.972;3.538;2023-07-20T12:27:37;24.60;52.20
32706;DHT22;19094;50.972;3.538;2023-07-20T12:30:05;24.70;52.60
32706;DHT22;19094;50.972;3.538;2023-07-20T12:32:31;24.80;51.60
32706;DHT22;19094;50.972;3.538;2023-07-20T12:34:56;24.80;51.50
32706;DHT22;19094;50.972;3.538;2023-07-20T12:37:22;25.00;51.00
32706;DHT22;19094;50.972;3.538;2023-07-20T12:39:48;25.10;50.50
32706;DHT22;19094;50.972;3.538;2023-07-20T12:42:14;25.10;50.20
32706;DHT22;19094;50.972;3.538;2023-07-20T12:44:43;25.20;50.40
32706;DHT22;19094;50.972;3.538;2023-07-20T12:47:08;25.20;51.10
32706;DHT22;19094;50.972;3.538;2023-07-20T12:49:34;25.30;49.90
32706;DHT22;19094;50.972;3.538;2023-07-20T12:52:00;25.40;49.60
32706;DHT22;19094;50.972;3.538;2023-07-20T12:54:25;25.50;49.40
32706;DHT22;19094;50.972;3.538;2023-07-20T12:56:51;25.50;49.20
32706;DHT22;19094;50.972;3.538;2023-07-20T12:59:16;25.50;49.00
32706;DHT22;19094;50.972;3.538;2023-07-20T13:01:42;25.50;49.10
32706;DHT22;19094;50.972;3.538;2023-07-20T13:04:09;25.50;49.20
32706;DHT22;19094;50.972;3.538;2023-07-20T13:06:35;25.50;49.10
32706;DHT22;19094;50.972;3.538;2023-07-20T13:09:02;25.50;48.90
32706;DHT22;19094;50.972;3.538;2023-07-20T13:11:27;25.50;48.90
32706;DHT22;19094;50.972;3.538;2023-07-20T13:13:53;25.50;49.10
32706;DHT22;19094;50.972;3.538;2023-07-20T13:16:18;25.40;49.20
32706;DHT22;19094;50.972;3.538;2023-07-20T13:18:44;25.40;49.40
32706;DHT22;19094;50.972;3.538;2023-07-20T13:21:10;25.30;49.30
32706;DHT22;19094;50.972;3.538;2023-07-20T13:23:37;25.30;49.30
32706;DHT22;19094;50.972;3.538;2023-07-20T13:26:04;25.20;48.90
32706;DHT22;19094;50.972;3.538;2023-07-20T13:28:30;25.20;49.30
32706;DHT22;19094;50.972;3.538;2023-07-20T13:30:55;25.10;49.30
32706;DHT22;19094;50.972;3.538;2023-07-20T13:33:21;25.10;50.40
32706;DHT22;19094;50.972;3.538;2023-07-20T13:35:47;25.00;51.40
32706;DHT22;19094;50.972;3.538;2023-07-20T13:38:13;24.90;50.60
32706;DHT22;19094;50.972;3.538;2023-07-20T13:40:38;24.80;52.00
32706;DHT22;19094;50.972;3.538;2023-07-20T13:43:04;24.80;51.70
32706;DHT22;19094;50.972;3.538;2023-07-20T13:45:29;24.70;52.30
32706;DHT22;19094;50.972;3.538;2023-07-20T13:47:55;24.70;52.60
32706;DHT22;19094;50.972;3.538;2023-07-20T13:50:21;24.60;51.80
32706;DHT22;19094;50.972;3.538;2023-07-20T13:52:47;24.50;52.60
32706;DHT22;19094;50.972;3.538;2023-07-20T13:55:12;24.50;53.00
32706;DHT22;19094;50.972;3.538;2023-07-20T13:57:38;24.40;54.10
32706;DHT22;19094;50.972;3.538;2023-07-20T14:00:04;24.40;52.40
32706;DHT22;19094;50.972;3.538;2023-07-20T14:02:30;24.40;53.20
32706;DHT22;19094;50.972;3.538;2023-07-20T14:04:56;24.30;53.50
32706;DHT22;19094;50.972;3.538;2023-07-20T14:07:22;24.30;54.30
32706;DHT22;19094;50.972;3.538;2023-07-20T14:09:48;24.20;54.30
32706;DHT22;19094;50.972;3.538;2023-07-20T14:12:13;24.10;54.80
32706;DHT22;19094;50.972;3.538;2023-07-20T14:14:40;24.10;54.20
32706;DHT22;19094;50.972;3.538;2023-07-20T14:17:07;24.10;54.30
32706;DHT22;19094;50.972;3.538;2023-07-20T14:19:32;24.00;53.70
32706;DHT22;19094;50.972;3.538;2023-07-20T14:21:58;24.00;54.50
32706;DHT22;19094;50.972;3.538;2023-07-20T14:24:25;23.90;54.70
32706;DHT22;19094;50.972;3.538;2023-07-20T14:26:51;23.90;54.20
32706;DHT22;19094;50.972;3.538;2023-07-20T14:29:17;23.90;55.40
32706;DHT22;19094;50.972;3.538;2023-07-20T14:31:44;23.90;55.40
32706;DHT22;19094;50.972;3.538;2023-07-20T14:34:10;23.90;55.30
32706;DHT22;19094;50.972;3.538;2023-07-20T14:36:35;23.90;55.10
32706;DHT22;19094;50.972;3.538;2023-07-20T14:39:01;23.80;55.40
32706;DHT22;19094;50.972;3.538;2023-07-20T14:41:27;23.80;55.90
32706;DHT22;19094;50.972;3.538;2023-07-20T14:43:53;23.80;56.00
32706;DHT22;19094;50.972;3.538;2023-07-20T14:46:18;23.70;55.40
32706;DHT22;19094;50.972;3.538;2023-07-20T14:48:44;23.70;55.50
32706;DHT22;19094;50.972;3.538;2023-07-20T14:51:10;23.70;55.50
32706;DHT22;19094;50.972;3.538;2023-07-20T14:53:35;23.70;55.50
32706;DHT22;19094;50.972;3.538;2023-07-20T14:56:01;23.70;55.60
32706;DHT22;19094;50.972;3.538;2023-07-20T14:58:27;23.70;55.70
32706;DHT22;19094;50.972;3.538;2023-07-20T15:00:53;23.70;56.40
32706;DHT22;19094;50.972;3.538;2023-07-20T15:03:19;23.70;56.20
32706;DHT22;19094;50.972;3.538;2023-07-20T15:05:44;23.70;57.10
32706;DHT22;19094;50.972;3.538;2023-07-20T15:08:10;23.70;56.70
32706;DHT22;19094;50.972;3.538;2023-07-20T15:10:36;23.60;56.60
32706;DHT22;19094;50.972;3.538;2023-07-20T15:13:02;23.60;57.30
32706;DHT22;19094;50.972;3.538;2023-07-20T15:15:28;23.60;57.30
32706;DHT22;19094;50.972;3.538;2023-07-20T15:17:53;23.60;57.30
32706;DHT22;19094;50.972;3.538;2023-07-20T15:20:19;23.70;57.40
32706;DHT22;19094;50.972;3.538;2023-07-20T15:22:45;23.70;56.90
32706;DHT22;19094;50.972;3.538;2023-07-20T15:25:11;23.70;56.80
32706;DHT22;19094;50.972;3.538;2023-07-20T15:27:37;23.70;59.50
32706;DHT22;19094;50.972;3.538;2023-07-20T15:30:04;23.80;58.30
32706;DHT22;19094;50.972;3.538;2023-07-20T15:32:30;23.90;62.00
32706;DHT22;19094;50.972;3.538;2023-07-20T15:34:55;23.90;58.70
32706;DHT22;19094;50.972;3.538;2023-07-20T15:37:23;24.00;59.30
32706;DHT22;19094;50.972;3.538;2023-07-20T15:39:49;24.10;58.20
32706;DHT22;19094;50.972;3.538;2023-07-20T15:42:15;24.30;58.00
32706;DHT22;19094;50.972;3.538;2023-07-20T15:44:41;24.50;57.70
32706;DHT22;19094;50.972;3.538;2023-07-20T15:47:07;24.70;54.00
32706;DHT22;19094;50.972;3.538;2023-07-20T15:49:32;24.90;56.50